Time;durP1;ratioP1;P1;durP2;ratioP2;P2;SDS_P1;SDS_P2;PMS_P1;PMS_P2;Temp;Humidity;BMP_temperature;BMP_pressure;BME280_temperature;BME280_humidity;BME280_pressure;Samples;Min_cycle;Max_cycle;Signal;HPM_P1;HPM_P2
2022/11/08 00:02:05;;;;;;;64.05;31.75;;;;;;;3.39;100.00;100625.81;1782502;80;21125;-66
2022/11/08 00:04:33;;;;;;;64.82;31.10;;;;;;;3.54;100.00;100637.54;1782997;80;21107;-64
2022/11/08 00:15:15;;;;;;;65.00;32.03;;;;;;;3.35;100.00;100657.91;1782904;80;21013;-66
2022/11/08 00:17:41;;;;;;;61.48;30.52;;;;;;;3.36;100.00;100667.03;1782799;80;21560;-65
2022/11/08 00:20:09;;;;;;;65.08;32.23;;;;;;;3.37;100.00;100670.50;1782819;80;21684;-66
2022/11/08 00:22:36;;;;;;;62.13;30.68;;;;;;;3.39;100.00;100672.67;1782839;80;21021;-65
2022/11/08 00:25:04;;;;;;;62.53;31.75;;;;;;;3.41;100.00;100654.02;1782870;80;21252;-65
2022/11/08 00:27:31;;;;;;;66.55;31.80;;;;;;;3.39;100.00;100637.97;1782866;80;21207;-67
2022/11/08 00:29:58;;;;;;;64.77;34.40;;;;;;;3.35;100.00;100635.78;1782450;80;21085;-67
2022/11/08 00:32:25;;;;;;;61.08;31.87;;;;;;;3.38;100.00;100628.40;1782132;80;21054;-65
2022/11/08 00:34:52;;;;;;;63.17;30.30;;;;;;;3.41;100.00;100633.19;1783083;80;21043;-65
2022/11/08 00:37:20;;;;;;;62.50;31.23;;;;;;;3.39;100.00;100623.65;1783093;80;21806;-65
2022/11/08 00:39:48;;;;;;;61.33;33.38;;;;;;;3.36;100.00;100614.96;1783254;80;21019;-65
2022/11/08 00:42:15;;;;;;;60.33;31.52;;;;;;;3.42;100.00;100618.43;1782511;80;21491;-65
2022/11/08 00:44:41;;;;;;;64.75;31.90;;;;;;;3.51;100.00;100609.31;1782770;80;21091;-65
2022/11/08 00:47:09;;;;;;;60.67;31.10;;;;;;;3.42;100.00;100611.48;1782460;80;21073;-67
2022/11/08 00:49:36;;;;;;;61.50;30.27;;;;;;;3.36;100.00;100603.69;1782556;80;21120;-65
2022/11/08 00:52:03;;;;;;;58.05;31.15;;;;;;;3.33;100.00;100601.92;1782457;80;21053;-64
2022/11/08 00:54:29;;;;;;;56.53;27.50;;;;;;;3.34;100.00;100603.68;1782643;80;21546;-65
2022/11/08 00:56:56;;;;;;;55.95;27.20;;;;;;;3.28;100.00;100604.11;1782649;80;21532;-66
2022/11/08 00:59:23;;;;;;;57.65;26.23;;;;;;;3.31;100.00;100611.91;1782664;80;21021;-65
2022/11/08 01:01:51;;;;;;;62.33;31.60;;;;;;;3.19;100.00;100608.01;1782746;80;21140;-65
2022/11/08 01:04:18;;;;;;;62.05;32.38;;;;;;;3.20;100.00;100600.21;1782731;80;21113;-66
2022/11/08 01:06:46;;;;;;;60.70;28.02;;;;;;;3.20;100.00;100601.92;1783110;80;21042;-65
2022/11/08 01:09:13;;;;;;;60.15;30.32;;;;;;;3.21;100.00;100602.38;1782878;80;21029;-64
2022/11/08 01:11:45;;;;;;;59.88;30.30;;;;;;;3.25;100.00;100602.38;1783022;80;21385;-65
2022/11/08 01:14:10;;;;;;;59.98;30.50;;;;;;;3.12;100.00;100600.19;1783125;80;21096;-65
2022/11/08 01:16:38;;;;;;;65.40;32.38;;;;;;;3.09;100.00;100605.39;1755397;80;21041;-66
2022/11/08 01:19:06;;;;;;;60.80;29.02;;;;;;;3.12;100.00;100600.63;1783319;80;21032;-64
2022/11/08 01:21:33;;;;;;;56.23;28.05;;;;;;;3.13;100.00;100588.92;1783461;80;21544;-65
2022/11/08 01:23:59;;;;;;;62.40;29.80;;;;;;;3.14;100.00;100593.25;1783217;80;21501;-66
2022/11/08 01:26:28;;;;;;;58.83;27.82;;;;;;;3.07;100.00;100588.05;1783590;80;21238;-65
2022/11/08 01:28:55;;;;;;;59.42;29.75;;;;;;;3.06;100.00;100592.39;1783527;80;21088;-66
2022/11/08 01:31:31;;;;;;;56.28;28.00;;;;;;;3.05;100.00;100580.23;1783357;80;21045;-66
2022/11/08 01:33:59;;;;;;;59.63;28.85;;;;;;;3.06;100.00;100581.98;1783347;80;21063;-66
2022/11/08 01:36:27;;;;;;;60.30;29.55;;;;;;;3.00;100.00;100583.70;1783263;80;21033;-65
2022/11/08 01:38:53;;;;;;;58.73;30.85;;;;;;;2.98;100.00;100596.70;1783418;80;22391;-65
2022/11/08 01:41:21;;;;;;;56.90;29.07;;;;;;;3.00;100.00;100599.32;1783235;80;21048;-65
2022/11/08 01:43:57;;;;;;;57.98;28.57;;;;;;;3.00;100.00;100599.32;1783927;80;21045;-66
2022/11/08 01:46:36;;;;;;;64.17;30.92;;;;;;;3.06;100.00;100610.61;1757233;80;21037;-65
2022/11/08 01:49:34;;;;;;;65.62;30.32;;;;;;;3.06;100.00;100610.61;1723837;83;21132;-67
2022/11/08 01:52:29;;;;;;;59.03;29.35;;;;;;;3.08;100.00;100611.48;1710377;83;21412;-65
2022/11/08 01:55:19;;;;;;;56.02;28.10;;;;;;;3.06;100.00;100601.50;1710410;83;21522;-66
2022/11/08 01:57:59;;;;;;;58.68;29.42;;;;;;;3.08;100.00;100592.38;1685600;84;21111;-67
2022/11/08 02:00:26;;;;;;;56.77;27.27;;;;;;;3.04;100.00;100594.13;1707576;83;21088;-65
2022/11/08 02:03:01;;;;;;;63.75;31.45;;;;;;;3.04;100.00;100594.13;1680273;85;21123;-65
2022/11/08 02:05:28;;;;;;;56.65;28.15;;;;;;;3.11;100.00;100588.05;1680391;85;21277;-65
2022/11/08 02:08:32;;;;;;;61.25;30.35;;;;;;;3.14;100.00;100575.03;1680170;84;21060;-64
2022/11/08 02:10:59;;;;;;;66.30;29.30;;;;;;;3.21;100.00;100574.60;1680216;85;21032;-65
2022/11/08 02:13:28;;;;;;;56.95;28.87;;;;;;;3.21;100.00;100574.60;1696427;84;21056;-66
2022/11/08 02:15:54;;;;;;;62.05;30.15;;;;;;;3.23;100.00;100564.20;1697185;84;21052;-65
2022/11/08 02:18:24;;;;;;;54.63;25.77;;;;;;;3.16;100.00;100568.53;1696902;84;21248;-65
2022/11/08 02:21:13;;;;;;;60.23;29.87;;;;;;;3.19;100.00;100566.36;1697262;84;22080;-65
2022/11/08 02:23:51;;;;;;;55.03;29.12;;;;;;;3.07;100.00;100565.48;1697054;84;21076;-65
2022/11/08 02:26:22;;;;;;;56.42;28.47;;;;;;;3.05;100.00;100576.33;1697218;84;21037;-64
2022/11/08 02:28:49;;;;;;;53.70;28.67;;;;;;;3.05;100.00;100576.33;1697484;83;21961;-65
2022/11/08 02:31:17;;;;;;;55.45;26.10;;;;;;;3.12;100.00;100581.11;1697015;84;21588;-64
2022/11/08 02:33:45;;;;;;;43.45;22.00;;;;;;;3.11;100.00;100590.66;1696917;84;21029;-65
2022/11/08 02:36:19;;;;;;;55.48;28.57;;;;;;;3.17;100.00;100583.71;1697100;84;21178;-65
2022/11/08 02:38:49;;;;;;;53.83;27.48;;;;;;;3.21;100.00;100580.25;1696829;84;21072;-66
2022/11/08 02:41:16;;;;;;;60.80;26.60;;;;;;;3.26;100.00;100594.13;1697254;84;21108;-65
2022/11/08 02:43:43;;;;;;;58.80;26.70;;;;;;;3.20;100.00;100588.91;1696907;84;21151;-63
2022/11/08 02:46:09;;;;;;;54.70;25.27;;;;;;;3.20;100.00;100588.91;1697042;84;21044;-64
2022/11/08 02:48:36;;;;;;;55.95;27.82;;;;;;;3.15;100.00;100592.40;1696916;84;21103;-67
2022/11/08 02:51:04;;;;;;;52.95;26.80;;;;;;;3.25;100.00;100581.99;1697109;84;21036;-65
2022/11/08 02:53:31;;;;;;;50.30;26.40;;;;;;;3.24;100.00;100590.21;1696919;84;21063;-66
2022/11/08 02:55:59;;;;;;;52.48;26.05;;;;;;;3.27;100.00;100575.05;1696933;84;21053;-66
2022/11/08 02:58:26;;;;;;;50.15;26.37;;;;;;;3.24;100.00;100572.43;1696910;83;21135;-66
2022/11/08 03:00:54;;;;;;;55.75;27.85;;;;;;;3.20;100.00;100574.59;1697222;83;21057;-66
2022/11/08 03:03:21;;;;;;;52.15;27.35;;;;;;;3.26;100.00;100568.09;1696974;84;21140;-65
2022/11/08 03:05:48;;;;;;;56.42;28.23;;;;;;;3.26;100.00;100568.09;1697296;84;21100;-67
2022/11/08 03:08:15;;;;;;;52.03;24.82;;;;;;;3.22;100.00;100579.37;1697246;84;21310;-66
2022/11/08 03:10:43;;;;;;;58.80;28.15;;;;;;;3.14;100.00;100577.63;1697177;84;21640;-66
2022/11/08 03:13:11;;;;;;;51.98;25.77;;;;;;;3.25;100.00;100571.58;1695214;84;21070;-66
2022/11/08 03:15:37;;;;;;;55.45;28.62;;;;;;;3.25;100.00;100571.58;1694868;83;21122;-66
2022/11/08 03:18:05;;;;;;;51.05;26.30;;;;;;;3.27;100.00;100572.45;1694461;84;21153;-64
2022/11/08 03:20:32;;;;;;;53.58;25.97;;;;;;;3.26;100.00;100573.30;1694648;84;21478;-66
2022/11/08 03:23:04;;;;;;;53.05;27.52;;;;;;;3.29;100.00;100565.48;1694431;84;21606;-66
2022/11/08 03:25:30;;;;;;;54.10;24.77;;;;;;;3.23;100.00;100569.41;1694676;84;21047;-66
2022/11/08 03:28:04;;;;;;;57.93;27.95;;;;;;;3.21;100.00;100560.73;1694499;84;21130;-65
2022/11/08 03:30:32;;;;;;;52.23;26.25;;;;;;;3.25;100.00;100566.37;1694401;84;22074;-65
2022/11/08 03:32:58;;;;;;;54.27;27.52;;;;;;;3.25;100.00;100566.37;1694381;84;21218;-64
2022/11/08 03:35:25;;;;;;;56.18;28.12;;;;;;;3.28;100.00;100570.27;1694483;84;21082;-65
2022/11/08 03:37:53;;;;;;;53.92;27.73;;;;;;;3.33;100.00;100564.62;1694442;84;21106;-65
2022/11/08 03:40:20;;;;;;;53.13;27.02;;;;;;;3.31;100.00;100568.55;1694626;84;21146;-65
2022/11/08 03:42:48;;;;;;;48.78;25.50;;;;;;;3.25;100.00;100566.37;1694525;84;21085;-66
2022/11/08 03:45:15;;;;;;;57.15;27.67;;;;;;;3.27;100.00;100569.84;1703020;84;21104;-65
2022/11/08 03:47:45;;;;;;;53.02;27.02;;;;;;;3.29;100.00;100579.80;1708567;84;21096;-65
2022/11/08 03:50:13;;;;;;;54.13;25.85;;;;;;;3.35;100.00;100575.91;1709086;84;21067;-65
2022/11/08 03:52:51;;;;;;;58.83;28.77;;;;;;;3.34;100.00;100576.78;1708577;84;21591;-64
2022/11/08 03:55:21;;;;;;;52.23;27.87;;;;;;;3.34;100.00;100576.78;1708825;84;21505;-66
2022/11/08 03:57:48;;;;;;;46.20;25.48;;;;;;;3.36;100.00;100578.52;1680287;84;21566;-66
2022/11/08 04:00:18;;;;;;;50.80;26.65;;;;;;;3.34;100.00;100584.59;1708575;84;21114;-68
2022/11/08 04:02:46;;;;;;;53.17;22.87;;;;;;;3.34;100.00;100584.59;1708592;84;21028;-66
2022/11/08 04:05:13;;;;;;;51.08;26.85;;;;;;;3.38;100.00;100577.19;1708560;84;21561;-66
2022/11/08 04:07:41;;;;;;;52.15;26.90;;;;;;;3.31;100.00;100583.27;1708696;84;21544;-67
2022/11/08 04:10:10;;;;;;;46.65;24.37;;;;;;;3.31;100.00;100583.27;1708617;84;21244;-66
2022/11/08 04:15:27;;;;;;;54.67;27.70;;;;;;;3.27;100.00;100583.72;1747830;82;21573;-67
2022/11/08 04:23:32;;;;;;;48.95;24.05;;;;;;;3.28;100.00;100579.37;1747947;81;21525;-65
2022/11/08 04:26:01;;;;;;;51.80;28.98;;;;;;;3.35;100.00;100577.20;1748072;82;21073;-67
2022/11/08 04:28:31;;;;;;;61.33;30.95;;;;;;;3.34;100.00;100578.09;1748008;81;21006;-66
2022/11/08 04:31:02;;;;;;;59.65;30.60;;;;;;;3.49;100.00;100578.05;1748455;82;21046;-67
2022/11/08 04:33:28;;;;;;;55.38;26.97;;;;;;;3.49;100.00;100579.36;1748122;82;21069;-66
2022/11/08 04:35:55;;;;;;;52.35;26.15;;;;;;;3.47;100.00;100579.79;1748085;81;21214;-65
2022/11/08 04:38:22;;;;;;;45.45;24.65;;;;;;;3.40;100.00;100583.27;1718267;82;21041;-65
2022/11/08 04:40:48;;;;;;;57.62;27.98;;;;;;;3.35;100.00;100576.77;1747977;82;21135;-65
2022/11/08 04:43:15;;;;;;;52.35;27.73;;;;;;;3.44;100.00;100575.90;1747805;82;21450;-66
2022/11/08 04:45:43;;;;;;;53.13;26.82;;;;;;;3.44;100.00;100575.90;1734082;82;20999;-65
2022/11/08 04:48:09;;;;;;;48.40;24.32;;;;;;;3.40;100.00;100580.67;1730696;82;21133;-65
2022/11/08 04:50:38;;;;;;;49.75;26.55;;;;;;;3.38;100.00;100577.19;1730648;82;21059;-66
2022/11/08 04:53:04;;;;;;;46.80;26.62;;;;;;;3.35;100.00;100573.30;1730292;82;21082;-66
2022/11/08 04:55:31;;;;;;;54.65;28.77;;;;;;;3.38;100.00;100575.89;1730545;82;21027;-66
2022/11/08 04:57:58;;;;;;;49.48;26.82;;;;;;;3.38;100.00;100575.89;1730627;82;21074;-65
2022/11/08 05:00:25;;;;;;;51.33;26.97;;;;;;;3.38;100.00;100573.73;1730529;82;21619;-65
2022/11/08 05:02:52;;;;;;;50.25;25.57;;;;;;;3.39;100.00;100566.37;1730686;82;21027;-65
2022/11/08 05:05:19;;;;;;;53.05;26.37;;;;;;;3.45;100.00;100562.03;1730652;82;21023;-66
2022/11/08 05:07:46;;;;;;;50.75;25.20;;;;;;;3.49;100.00;100568.94;1730557;82;21015;-65
2022/11/08 05:10:13;;;;;;;51.28;25.50;;;;;;;3.39;100.00;100572.44;1730437;82;21023;-66
2022/11/08 05:12:39;;;;;;;60.00;29.23;;;;;;;3.40;100.00;100576.77;1730592;82;21076;-65
2022/11/08 05:15:08;;;;;;;54.20;27.87;;;;;;;3.39;100.00;100580.25;1730401;82;21027;-65
2022/11/08 05:17:36;;;;;;;45.95;24.87;;;;;;;3.44;100.00;100581.55;1702299;82;21011;-66
2022/11/08 05:25:39;;;;;;;53.20;28.47;;;;;;;3.38;100.00;100578.49;1730769;82;21154;-65
2022/11/08 05:28:05;;;;;;;50.50;26.62;;;;;;;3.43;100.00;100583.29;1730830;82;21027;-68
2022/11/08 05:30:32;;;;;;;47.88;25.02;;;;;;;3.43;100.00;100595.01;1730692;82;21024;-66
2022/11/08 05:32:59;;;;;;;51.53;26.57;;;;;;;3.53;100.00;100604.53;1730744;82;20976;-65
2022/11/08 05:35:25;;;;;;;51.20;25.50;;;;;;;3.39;100.00;100602.38;1730741;82;21094;-65
2022/11/08 05:37:52;;;;;;;49.30;23.77;;;;;;;3.33;100.00;100606.27;1730861;82;21140;-66
2022/11/08 05:40:18;;;;;;;54.05;26.65;;;;;;;3.36;100.00;100606.30;1730529;82;21051;-66
2022/11/08 05:42:45;;;;;;;53.33;24.47;;;;;;;3.24;100.00;100599.32;1730561;82;21067;-66
2022/11/08 05:45:12;;;;;;;49.23;25.68;;;;;;;3.29;100.00;100603.23;1740407;82;21026;-66
2022/11/08 05:47:44;;;;;;;52.38;26.57;;;;;;;3.29;100.00;100601.92;1748345;82;21005;-66
2022/11/08 05:50:12;;;;;;;48.50;26.00;;;;;;;3.34;100.00;100603.68;1747899;82;21074;-66
2022/11/08 05:52:39;;;;;;;52.75;29.10;;;;;;;3.33;100.00;100603.67;1748549;81;21057;-66
2022/11/08 05:55:07;;;;;;;56.42;26.75;;;;;;;3.21;100.00;100598.03;1747954;82;21042;-67
2022/11/08 05:57:34;;;;;;;49.00;27.35;;;;;;;3.30;100.00;100598.47;1748072;82;21318;-66
2022/11/08 06:00:02;;;;;;;58.85;29.02;;;;;;;3.30;100.00;100598.47;1748206;81;21058;-68
2022/11/08 06:02:31;;;;;;;52.95;27.55;;;;;;;3.35;100.00;100596.73;1746744;82;21118;-66
2022/11/08 06:05:01;;;;;;;47.48;24.87;;;;;;;3.22;100.00;100598.48;1747813;82;21054;-67
2022/11/08 06:07:28;;;;;;;56.60;29.87;;;;;;;3.22;100.00;100598.48;1748149;82;21029;-66
2022/11/08 06:09:56;;;;;;;57.48;29.90;;;;;;;3.23;100.00;100608.45;1747977;81;21529;-66
2022/11/08 06:12:23;;;;;;;61.28;30.90;;;;;;;3.29;100.00;100609.73;1748290;82;21026;-66
2022/11/08 06:14:49;;;;;;;54.45;29.77;;;;;;;3.31;100.00;100615.41;1708599;84;21146;-68
2022/11/08 06:17:15;;;;;;;54.23;28.90;;;;;;;3.34;100.00;100606.72;1708833;84;21100;-67
2022/11/08 06:19:43;;;;;;;53.73;28.77;;;;;;;3.37;100.00;100601.50;1708830;84;21080;-67
2022/11/08 06:22:10;;;;;;;50.43;27.15;;;;;;;3.46;100.00;100617.13;1708610;84;21104;-66
2022/11/08 06:24:37;;;;;;;56.63;28.62;;;;;;;3.40;100.00;100613.20;1708700;84;21048;-67
2022/11/08 06:27:03;;;;;;;59.77;29.67;;;;;;;3.39;100.00;100621.91;1708600;84;21044;-67
2022/11/08 06:29:31;;;;;;;54.65;27.50;;;;;;;3.39;100.00;100619.30;1708619;84;21490;-66
2022/11/08 06:31:58;;;;;;;55.70;29.63;;;;;;;3.39;100.00;100615.84;1708667;84;21572;-66
2022/11/08 06:34:24;;;;;;;55.33;26.48;;;;;;;3.32;100.00;100612.36;1709031;84;21616;-66
2022/11/08 06:36:53;;;;;;;52.23;28.10;;;;;;;3.28;100.00;100599.77;1708900;84;21075;-66
2022/11/08 06:39:21;;;;;;;57.55;30.72;;;;;;;3.32;100.00;100597.59;1708778;84;21598;-67
2022/11/08 10:36:36;;;;;;;104.47;45.70;;;;;;;4.73;100.00;100566.33;1799714;79;23564;-93
2022/11/08 10:39:19;;;;;;;120.42;49.45;;;;;;;5.10;100.00;100579.58;1759256;81;21002;-90
2022/11/08 10:42:23;;;;;;;99.32;42.03;;;;;;;5.55;100.00;100569.19;1759738;81;21119;-91
2022/11/08 10:44:50;;;;;;;108.35;43.23;;;;;;;5.80;100.00;100575.48;1760177;80;20982;-92
2022/11/08 10:47:26;;;;;;;83.72;39.20;;;;;;;5.98;100.00;100576.63;1759935;80;20962;-92
2022/11/08 10:49:53;;;;;;;85.72;37.93;;;;;;;6.15;100.00;100575.13;1754395;78;21129;-93
2022/11/08 10:52:40;;;;;;;70.87;34.15;;;;;;;6.28;100.00;100579.74;1752500;79;21025;-92
2022/11/08 10:55:08;;;;;;;76.20;33.67;;;;;;;6.46;100.00;100579.96;1750594;82;21791;-90
2022/11/08 10:58:08;;;;;;;81.25;37.35;;;;;;;6.55;100.00;100578.98;1751924;80;20962;-92
2022/11/08 11:01:25;;;;;;;82.90;33.95;;;;;;;6.76;100.00;100581.30;1750755;82;20986;-92
2022/11/08 11:04:08;;;;;;;76.95;36.20;;;;;;;6.77;100.00;100579.12;1688790;82;20967;-92
2022/11/08 11:06:37;;;;;;;90.10;37.42;;;;;;;6.87;100.00;100584.62;1750048;82;21546;-93
2022/11/08 11:09:19;;;;;;;92.67;40.83;;;;;;;6.99;100.00;100590.58;1750952;81;21023;-91
2022/11/08 11:12:06;;;;;;;98.85;41.95;;;;;;;7.04;100.00;100575.66;1743158;82;20995;-91
2022/11/08 11:14:36;;;;;;;69.87;33.38;;;;;;;7.08;100.00;100574.72;1751543;79;20994;-91
2022/11/08 11:17:21;;;;;;;83.70;38.42;;;;;;;7.09;100.00;100584.33;1750826;82;21392;-92
2022/11/08 11:19:59;;;;;;;87.22;38.53;;;;;;;7.13;100.00;100578.12;1752005;82;20995;-92
2022/11/08 11:22:32;;;;;;;;;;;;;;;7.14;100.00;100572.02;1751675;82;21030;-92
2022/11/08 11:25:09;;;;;;;88.72;36.20;;;;;;;7.30;100.00;100570.88;1750002;82;20197;-91
2022/11/08 11:27:37;;;;;;;72.65;33.78;;;;;;;7.51;100.00;100568.78;1750207;82;21030;-91
2022/11/08 11:30:27;;;;;;;94.07;37.63;;;;;;;7.77;100.00;100569.16;1720696;82;21021;-90
2022/11/08 11:33:09;;;;;;;78.57;34.58;;;;;;;7.90;100.00;100568.50;1750307;82;21089;-92
2022/11/08 11:35:53;;;;;;;78.85;36.48;;;;;;;8.12;100.00;100567.66;1740320;81;21307;-92
2022/11/08 11:38:51;;;;;;;66.28;32.25;;;;;;;8.35;100.00;100574.16;1737931;80;21090;-92
2022/11/08 11:41:55;;;;;;;81.22;36.93;;;;;;;8.67;100.00;100575.28;1735787;77;21043;-90
2022/11/08 11:45:06;;;;;;;84.10;36.70;;;;;;;9.17;100.00;100574.56;1729778;82;21006;-91
2022/11/08 11:47:53;;;;;;;75.97;33.90;;;;;;;9.97;100.00;100576.47;1707721;84;22159;-93
2022/11/08 11:50:38;;;;;;;72.05;32.25;;;;;;;10.29;100.00;100584.35;1707230;83;21057;-92
2022/11/08 11:53:35;;;;;;;72.67;32.95;;;;;;;10.19;100.00;100581.55;1707888;84;21010;-92
2022/11/08 11:56:45;;;;;;;70.37;31.57;;;;;;;10.14;100.00;100584.74;1707265;84;21057;-91
2022/11/08 12:00:04;;;;;;;72.90;33.15;;;;;;;10.02;100.00;100583.77;1706677;83;21094;-93
2022/11/08 12:03:18;;;;;;;71.35;33.18;;;;;;;9.85;100.00;100582.47;1709442;78;21039;-92
2022/11/08 12:06:10;;;;;;;52.73;27.20;;;;;;;9.72;100.00;100557.39;1708739;82;21283;-90
2022/11/08 12:09:09;;;;;;;75.80;32.75;;;;;;;9.76;100.00;100590.61;1706846;84;21096;-92
2022/11/08 12:12:26;;;;;;;87.00;36.50;;;;;;;9.74;100.00;100576.63;1700752;83;21120;-91
2022/11/08 12:15:22;;;;;;;78.12;32.85;;;;;;;9.64;100.00;100585.67;1686281;84;21068;-92
2022/11/08 12:18:32;;;;;;;73.45;34.10;;;;;;;9.45;100.00;100596.66;1706005;84;20990;-91
2022/11/08 12:21:25;;;;;;;74.47;35.63;;;;;;;9.15;100.00;100597.39;1707403;84;21054;-92
2022/11/08 12:24:31;;;;;;;69.22;32.08;;;;;;;8.90;100.00;100603.65;1705403;84;21693;-91
2022/11/08 12:27:18;;;;;;;75.52;35.45;;;;;;;8.78;100.00;100604.80;1707962;82;21026;-91
2022/11/08 12:30:09;;;;;;;68.02;30.52;;;;;;;8.76;100.00;100603.50;1707213;83;21064;-93
2022/11/08 12:33:02;;;;;;;77.03;32.93;;;;;;;8.84;100.00;100610.37;1689153;84;21572;-91
2022/11/08 12:35:45;;;;;;;74.03;33.40;;;;;;;8.90;100.00;100606.28;1718697;83;21506;-92
2022/11/08 12:38:29;;;;;;;73.75;33.63;;;;;;;8.88;100.00;100598.45;1728746;82;21001;-92
2022/11/08 12:41:26;;;;;;;78.50;34.27;;;;;;;8.80;100.00;100604.31;1730556;77;20947;-92
2022/11/08 12:44:30;;;;;;;83.22;37.10;;;;;;;8.67;100.00;100608.09;1730650;77;21010;-91
2022/11/08 12:47:19;;;;;;;75.55;31.20;;;;;;;8.73;100.00;100602.72;1729366;77;21021;-89
2022/11/08 12:50:10;;;;;;;68.75;31.40;;;;;;;8.63;100.00;100604.69;1730169;77;21155;-89
2022/11/08 12:52:52;;;;;;;81.20;35.85;;;;;;;8.65;100.00;100610.78;1730075;77;21047;-92
2022/11/08 12:55:26;;;;;;;81.17;35.63;;;;;;;8.67;100.00;100612.03;1728469;81;21049;-90
2022/11/08 12:57:56;;;;;;;72.20;31.12;;;;;;;8.53;100.00;100613.19;1729812;81;21037;-89
2022/11/08 13:00:23;;;;;;;86.40;36.45;;;;;;;8.54;100.00;100609.68;1729610;81;21112;-91
2022/11/08 13:03:09;;;;;;;68.40;32.83;;;;;;;8.69;100.00;100618.12;1729576;83;21001;-91
2022/11/08 13:05:43;;;;;;;83.12;35.33;;;;;;;8.59;100.00;100618.31;1727604;81;21031;-90
2022/11/08 13:08:24;;;;;;;82.60;38.70;;;;;;;8.42;100.00;100625.70;1730083;77;21096;-91
2022/11/08 13:11:07;;;;;;;80.30;37.67;;;;;;;8.36;100.00;100618.77;1723320;83;21053;-90
2022/11/08 13:13:55;;;;;;;86.67;40.15;;;;;;;8.47;100.00;100608.09;1727471;83;20994;-91
2022/11/08 13:16:28;;;;;;;85.30;38.50;;;;;;;8.42;100.00;100613.89;1728889;77;21195;-91
2022/11/08 13:19:04;;;;;;;86.30;42.78;;;;;;;8.44;100.00;100610.75;1701463;83;21116;-90
2022/11/08 13:21:39;;;;;;;78.42;36.80;;;;;;;8.38;100.00;100613.03;1727469;82;21069;-92
2022/11/08 13:24:16;;;;;;;88.42;40.85;;;;;;;8.36;100.00;100617.45;1728121;83;21060;-90
2022/11/08 13:26:59;;;;;;;54.33;28.60;;;;;;;8.29;100.00;100621.55;1729261;77;20895;-90
2022/11/08 13:29:30;;;;;;;82.05;38.85;;;;;;;8.26;100.00;100621.59;1725246;83;21331;-91
2022/11/08 13:32:11;;;;;;;94.22;44.25;;;;;;;8.17;100.00;100625.28;1701265;83;21072;-89
2022/11/08 13:35:08;;;;;;;80.72;37.38;;;;;;;8.20;100.00;100628.69;1729863;77;21569;-91
2022/11/08 13:38:19;;;;;;;77.10;35.92;;;;;;;8.16;100.00;100634.88;1720840;81;20994;-93
2022/11/08 13:41:16;;;;;;;87.00;42.45;;;;;;;8.10;100.00;100628.91;1722053;83;21002;-91
2022/11/08 13:43:44;;;;;;;95.42;40.67;;;;;;;8.04;100.00;100629.87;1722765;77;21141;-91
2022/11/08 13:46:28;;;;;;;95.92;44.23;;;;;;;7.98;100.00;100640.47;1695483;79;21054;-92
2022/11/08 13:49:27;;;;;;;106.97;46.08;;;;;;;7.94;100.00;100634.89;1682210;79;21518;-91
2022/11/08 13:52:47;;;;;;;105.27;47.95;;;;;;;7.78;100.00;100636.91;1692696;77;20914;-91
2022/11/08 13:55:46;;;;;;;89.80;45.52;;;;;;;7.85;100.00;100637.67;1686076;80;21614;-92
2022/11/08 13:58:43;;;;;;;81.40;39.53;;;;;;;7.96;100.00;100639.66;1695245;83;21539;-93
2022/11/08 14:01:26;;;;;;;108.55;49.40;;;;;;;7.93;100.00;100637.93;1720775;82;21057;-91
2022/11/08 14:03:56;;;;;;;92.12;43.85;;;;;;;7.99;100.00;100629.11;1721618;83;20994;-91
2022/11/08 14:06:50;;;;;;;79.90;36.42;;;;;;;7.88;100.00;100633.67;1721793;83;21049;-91
2022/11/08 14:09:34;;;;;;;75.25;39.65;;;;;;;7.93;100.00;100634.45;1722079;81;20982;-92
2022/11/08 14:12:26;;;;;;;97.33;43.85;;;;;;;7.95;100.00;100629.59;1721597;83;21721;-91
2022/11/08 14:15:17;;;;;;;;;;;;;;;7.94;100.00;100630.95;1719887;83;21100;-91
2022/11/08 14:18:05;;;;;;;68.07;34.13;;;;;;;7.95;100.00;100625.66;1721317;83;20126;-91
2022/11/08 14:20:41;;;;;;;105.92;47.98;;;;;;;7.92;100.00;100624.87;1659816;85;21536;-91
2022/11/08 14:23:35;;;;;;;103.72;47.15;;;;;;;7.92;100.00;100620.94;1722054;83;21077;-92
2022/11/08 14:26:10;;;;;;;96.05;44.45;;;;;;;7.90;100.00;100620.09;1701841;79;84410;-67
2022/11/08 14:28:40;;;;;;;97.88;48.25;;;;;;;7.86;100.00;100623.20;1724278;83;21065;-68
2022/11/08 14:31:26;;;;;;;93.95;43.05;;;;;;;7.85;100.00;100623.25;1724238;83;21026;-67
2022/11/08 14:33:53;;;;;;;114.32;48.13;;;;;;;7.85;100.00;100626.73;1726492;81;21822;-67
2022/11/08 14:36:22;;;;;;;103.17;48.48;;;;;;;7.72;100.00;100624.76;1754164;81;21013;-68
2022/11/08 17:48:33;;;;;;;155.00;68.70;;;;;;;4.94;100.00;100693.21;1761018;78;27546;-90
2022/11/08 17:51:04;;;;;;;149.93;67.05;;;;;;;5.15;100.00;100692.22;1738118;79;20946;-92
2022/11/08 17:53:35;;;;;;;127.07;60.43;;;;;;;5.38;100.00;100700.36;1735510;80;21469;-91
2022/11/08 17:56:04;;;;;;;133.05;61.60;;;;;;;5.43;100.00;100701.22;1735367;80;21046;-92
2022/11/08 17:58:33;;;;;;;130.05;60.52;;;;;;;5.50;100.00;100697.69;1733791;81;21561;-91
2022/11/08 18:01:07;;;;;;;136.62;61.33;;;;;;;5.47;100.00;100708.14;1735001;82;20905;-91
2022/11/08 18:03:39;;;;;;;129.80;60.85;;;;;;;5.48;100.00;100703.36;1704967;82;20949;-89
2022/11/08 18:06:11;;;;;;;144.57;62.23;;;;;;;5.60;100.00;100701.95;1737170;79;20965;-89
2022/11/08 18:08:40;;;;;;;131.20;57.53;;;;;;;5.76;100.00;100698.78;1708841;82;20917;-89
2022/11/08 18:11:11;;;;;;;241.48;86.32;;;;;;;5.76;100.00;100696.17;1735603;79;20984;-91
2022/11/08 18:13:40;;;;;;;220.93;76.97;;;;;;;5.87;100.00;100694.78;1735046;80;20999;-89
2022/11/08 18:16:12;;;;;;;256.10;89.07;;;;;;;5.72;100.00;100693.59;1735171;80;20945;-90
2022/11/08 18:18:43;;;;;;;229.28;80.50;;;;;;;5.74;100.00;100696.62;1735004;82;21675;-90
2022/11/08 18:21:16;;;;;;;205.37;78.72;;;;;;;5.89;100.00;100696.50;1704738;81;20953;-92
2022/11/08 18:23:44;;;;;;;231.00;89.30;;;;;;;5.96;100.00;100705.19;1735377;79;21060;-91
2022/11/08 18:26:12;;;;;;;178.40;72.22;;;;;;;5.96;100.00;100700.38;1736923;82;20997;-91
2022/11/08 18:28:40;;;;;;;147.30;61.18;;;;;;;6.00;100.00;100702.09;1735138;80;21038;-91
2022/11/08 18:31:15;;;;;;;133.67;57.80;;;;;;;6.00;100.00;100695.11;1735153;79;21091;-91
2022/11/08 18:33:47;;;;;;;128.07;57.85;;;;;;;6.05;100.00;100695.95;1735888;82;20998;-90
2022/11/08 18:36:20;;;;;;;131.72;60.30;;;;;;;6.09;100.00;100691.09;1705239;82;21862;-93
2022/11/08 18:38:48;;;;;;;126.30;59.18;;;;;;;6.10;100.00;100691.98;1733543;80;22258;-92
2022/11/08 18:41:27;;;;;;;100.80;48.83;;;;;;;6.03;100.00;100702.94;1733910;81;21091;-93
2022/11/08 18:44:00;;;;;;;101.82;48.58;;;;;;;5.94;100.00;100704.33;1733063;82;21001;-91
2022/11/08 18:46:31;;;;;;;141.55;70.90;;;;;;;5.92;100.00;100706.06;1735187;80;21505;-92
2022/11/08 18:49:01;;;;;;;157.10;74.75;;;;;;;5.82;100.00;100705.69;1734008;82;21064;-92
2022/11/08 18:51:30;;;;;;;125.53;58.55;;;;;;;5.83;100.00;100713.98;1734249;82;21718;-91
2022/11/08 18:54:00;;;;;;;148.65;64.25;;;;;;;5.82;100.00;100710.92;1704160;82;21075;-92
2022/11/08 18:56:29;;;;;;;135.12;63.02;;;;;;;5.70;100.00;100721.48;1732400;82;21150;-91
2022/11/08 18:58:56;;;;;;;161.37;74.32;;;;;;;5.67;100.00;100723.23;1720885;82;21066;-91
2022/11/08 19:01:23;;;;;;;160.07;75.25;;;;;;;5.61;100.00;100731.14;1704591;80;20928;-91
2022/11/08 19:03:50;;;;;;;137.72;65.08;;;;;;;5.54;100.00;100740.31;1688958;85;21748;-93
2022/11/08 19:06:18;;;;;;;129.97;58.52;;;;;;;5.46;100.00;100735.16;1681968;80;81169;-68
2022/11/08 19:08:45;;;;;;;128.62;60.05;;;;;;;5.37;100.00;100743.05;1629551;86;21262;-67
2022/11/08 19:11:13;;;;;;;107.95;49.03;;;;;;;5.28;100.00;100743.09;1651752;86;21047;-67